Time;durP1;ratioP1;P1;durP2;ratioP2;P2;SDS_P1;SDS_P2;PMS_P1;PMS_P2;Temp;Humidity;BMP_temperature;BMP_pressure;BME280_temperature;BME280_humidity;BME280_pressure;Samples;Min_cycle;Max_cycle;Signal;HPM_P1;HPM_P2
2022/10/21 00:00:57;;;;;;;17.77;14.20;;;;;;;;;;626996;23;1118;-61
2022/10/21 00:02:05;;;;;;;16.50;13.50;;;;;;;;;;618775;23;981;-61
2022/10/21 00:03:12;;;;;;;14.73;12.45;;;;;;;;;;624704;23;1255;-61
2022/10/21 00:04:20;;;;;;;17.60;12.70;;;;;;;;;;624488;23;1436;-61
2022/10/21 00:05:28;;;;;;;17.05;12.10;;;;;;;;;;624993;23;792;-61
2022/10/21 00:06:36;;;;;;;15.07;11.82;;;;;;;;;;630929;23;1034;-61
2022/10/21 00:07:44;;;;;;;13.52;11.25;;;;;;;;;;630211;23;1359;-61
2022/10/21 00:08:52;;;;;;;15.57;12.40;;;;;;;;;;630013;23;1359;-61
2022/10/21 00:10:00;;;;;;;15.45;12.15;;;;;;;;;;630987;23;1028;-61
2022/10/21 00:11:08;;;;;;;15.38;11.35;;;;;;;;;;630717;23;1002;-61
2022/10/21 00:12:16;;;;;;;15.38;11.48;;;;;;;;;;630531;23;819;-61
2022/10/21 00:13:25;;;;;;;14.15;11.75;;;;;;;;;;627030;23;1387;-60
2022/10/21 00:14:33;;;;;;;15.10;11.98;;;;;;;;;;627668;23;1551;-61
2022/10/21 00:15:41;;;;;;;14.20;11.88;;;;;;;;;;633155;23;1252;-61
2022/10/21 00:16:49;;;;;;;13.23;11.55;;;;;;;;;;628119;23;1110;-60
2022/10/21 00:17:58;;;;;;;13.95;11.13;;;;;;;;;;627918;23;1225;-61
2022/10/21 00:19:06;;;;;;;13.55;10.90;;;;;;;;;;630818;23;1575;-61
2022/10/21 00:20:14;;;;;;;14.10;11.68;;;;;;;;;;631255;23;1381;-61
2022/10/21 00:21:21;;;;;;;15.35;10.88;;;;;;;;;;630709;23;1081;-61
2022/10/21 00:22:29;;;;;;;13.55;10.50;;;;;;;;;;631021;23;946;-61
2022/10/21 00:23:37;;;;;;;13.48;10.80;;;;;;;;;;624788;23;1119;-60
2022/10/21 00:24:45;;;;;;;13.27;10.60;;;;;;;;;;631186;23;990;-60
2022/10/21 00:25:57;;;;;;;13.15;10.38;;;;;;;;;;630875;23;957;-61
2022/10/21 00:27:05;;;;;;;12.57;10.57;;;;;;;;;;631103;23;951;-60
2022/10/21 00:28:13;;;;;;;11.25;9.50;;;;;;;;;;625040;23;955;-61
2022/10/21 00:29:21;;;;;;;14.07;10.35;;;;;;;;;;625134;23;963;-60
2022/10/21 00:30:29;;;;;;;14.07;10.55;;;;;;;;;;624755;23;1301;-61
2022/10/21 00:31:37;;;;;;;14.52;10.77;;;;;;;;;;630325;23;923;-61
2022/10/21 00:32:45;;;;;;;11.88;8.65;;;;;;;;;;627810;23;1002;-60
2022/10/21 00:33:53;;;;;;;11.10;8.32;;;;;;;;;;630135;23;973;-60
2022/10/21 00:35:01;;;;;;;8.73;7.32;;;;;;;;;;630759;23;1423;-61
2022/10/21 00:36:13;;;;;;;9.75;8.02;;;;;;;;;;627916;23;1302;-61
2022/10/21 00:37:21;;;;;;;8.88;7.28;;;;;;;;;;628521;23;884;-60
2022/10/21 00:38:30;;;;;;;10.27;7.00;;;;;;;;;;630758;23;1046;-61
2022/10/21 00:39:38;;;;;;;9.63;6.70;;;;;;;;;;630860;23;1271;-61
2022/10/21 00:40:46;;;;;;;10.60;7.15;;;;;;;;;;627308;23;1695;-61
2022/10/21 00:41:54;;;;;;;9.27;7.22;;;;;;;;;;631153;23;1747;-61
2022/10/21 00:43:08;;;;;;;10.85;7.70;;;;;;;;;;628081;23;895;-61
2022/10/21 00:44:17;;;;;;;11.32;7.72;;;;;;;;;;631053;23;1219;-61
2022/10/21 00:45:27;;;;;;;11.27;7.50;;;;;;;;;;630801;23;1367;-61
2022/10/21 00:46:38;;;;;;;12.05;7.57;;;;;;;;;;627146;23;1313;-61
2022/10/21 00:47:52;;;;;;;10.52;7.80;;;;;;;;;;631066;23;1226;-60
2022/10/21 00:49:13;;;;;;;9.68;7.80;;;;;;;;;;630033;23;815;-61
2022/10/21 00:50:40;;;;;;;9.50;7.82;;;;;;;;;;630259;23;887;-61
2022/10/21 00:51:52;;;;;;;10.85;7.97;;;;;;;;;;631001;23;891;-61
2022/10/21 00:53:05;;;;;;;11.23;7.80;;;;;;;;;;627048;23;1136;-61
2022/10/21 00:54:14;;;;;;;10.50;7.97;;;;;;;;;;625260;23;1475;-61
2022/10/21 00:55:23;;;;;;;11.73;8.48;;;;;;;;;;624899;23;1135;-61
2022/10/21 00:56:35;;;;;;;10.07;8.30;;;;;;;;;;626520;23;1522;-61
2022/10/21 00:57:44;;;;;;;11.18;8.60;;;;;;;;;;625340;23;1280;-60
2022/10/21 00:58:55;;;;;;;13.38;9.25;;;;;;;;;;630168;23;902;-60
2022/10/21 01:00:05;;;;;;;13.95;9.23;;;;;;;;;;630530;23;892;-61
2022/10/21 01:01:13;;;;;;;10.52;9.10;;;;;;;;;;630863;23;1271;-60
2022/10/21 01:02:21;;;;;;;11.82;9.80;;;;;;;;;;627411;23;1558;-61
2022/10/21 01:03:30;;;;;;;13.60;10.13;;;;;;;;;;630991;23;1244;-61
2022/10/21 01:04:38;;;;;;;12.82;10.05;;;;;;;;;;631013;23;944;-61
2022/10/21 01:05:49;;;;;;;12.15;9.73;;;;;;;;;;630880;23;921;-59
2022/10/21 01:06:59;;;;;;;13.02;9.60;;;;;;;;;;624435;23;1213;-61
2022/10/21 01:08:07;;;;;;;11.93;9.60;;;;;;;;;;624232;23;1081;-60
2022/10/21 01:09:17;;;;;;;12.82;9.90;;;;;;;;;;625240;23;1351;-61
2022/10/21 01:10:25;;;;;;;12.00;9.05;;;;;;;;;;621732;23;1323;-60
2022/10/21 01:11:43;;;;;;;10.90;9.18;;;;;;;;;;627985;23;1237;-61
2022/10/21 01:13:02;;;;;;;12.90;9.85;;;;;;;;;;630601;23;1013;-61
2022/10/21 01:15:04;;;;;;;12.68;9.55;;;;;;;;;;631630;23;1378;-61
2022/10/21 01:16:56;;;;;;;13.70;9.85;;;;;;;;;;621116;23;1368;-61
2022/10/21 01:18:04;;;;;;;11.93;9.43;;;;;;;;;;615681;24;913;-60
2022/10/21 01:19:40;;;;;;;12.10;9.07;;;;;;;;;;615894;24;956;-61
2022/10/21 01:20:56;;;;;;;12.05;9.70;;;;;;;;;;616228;24;1003;-61
2022/10/21 01:22:36;;;;;;;12.15;9.60;;;;;;;;;;612763;24;2094;-60
2022/10/21 01:23:53;;;;;;;12.82;9.23;;;;;;;;;;609644;24;1202;-61
2022/10/21 01:25:14;;;;;;;12.50;9.65;;;;;;;;;;612729;24;939;-61
2022/10/21 01:26:50;;;;;;;11.15;9.40;;;;;;;;;;615706;24;1034;-61
2022/10/21 01:28:23;;;;;;;11.85;9.05;;;;;;;;;;616061;24;942;-61
2022/10/21 01:29:52;;;;;;;10.98;9.00;;;;;;;;;;613329;24;1313;-60
2022/10/21 01:31:17;;;;;;;11.05;9.40;;;;;;;;;;610180;24;1017;-61
2022/10/21 01:32:52;;;;;;;12.55;9.77;;;;;;;;;;610721;24;1339;-61
2022/10/21 01:34:18;;;;;;;10.40;9.25;;;;;;;;;;612929;24;1070;-61
2022/10/21 01:35:46;;;;;;;12.13;9.48;;;;;;;;;;613231;24;1508;-61
2022/10/21 01:37:00;;;;;;;11.18;9.27;;;;;;;;;;615937;23;1020;-61
2022/10/21 01:38:20;;;;;;;10.95;9.25;;;;;;;;;;615815;24;836;-61
2022/10/21 01:39:37;;;;;;;13.75;9.55;;;;;;;;;;610555;24;1389;-61
2022/10/21 01:41:11;;;;;;;9.80;8.80;;;;;;;;;;609956;24;924;-61
2022/10/21 01:42:29;;;;;;;11.48;9.20;;;;;;;;;;612773;24;1369;-61
2022/10/21 01:43:51;;;;;;;11.52;9.15;;;;;;;;;;610520;24;883;-61
2022/10/21 01:45:02;;;;;;;9.98;8.57;;;;;;;;;;613005;24;1123;-61
2022/10/21 01:46:36;;;;;;;10.05;8.80;;;;;;;;;;612933;24;1070;-61
2022/10/21 01:47:53;;;;;;;10.50;8.40;;;;;;;;;;613115;24;1266;-61
2022/10/21 01:49:10;;;;;;;8.93;8.02;;;;;;;;;;612959;24;1232;-61
2022/10/21 01:50:25;;;;;;;9.82;8.60;;;;;;;;;;613294;24;1917;-61
2022/10/21 01:51:36;;;;;;;9.88;8.45;;;;;;;;;;619122;23;836;-61
2022/10/21 01:52:47;;;;;;;9.90;7.93;;;;;;;;;;631127;23;811;-61
2022/10/21 01:54:06;;;;;;;10.70;8.02;;;;;;;;;;630384;23;1006;-61
2022/10/21 01:55:18;;;;;;;11.07;7.90;;;;;;;;;;631104;23;1302;-61
2022/10/21 01:56:27;;;;;;;8.90;7.47;;;;;;;;;;627766;23;907;-61
2022/10/21 01:57:40;;;;;;;10.00;7.95;;;;;;;;;;631154;23;964;-61
2022/10/21 01:58:53;;;;;;;8.38;7.55;;;;;;;;;;627579;23;1361;-61
2022/10/21 02:00:03;;;;;;;8.60;7.70;;;;;;;;;;625095;23;1098;-61
2022/10/21 02:01:12;;;;;;;9.70;7.78;;;;;;;;;;627785;23;945;-61
2022/10/21 02:02:21;;;;;;;9.25;7.40;;;;;;;;;;627393;23;858;-61
2022/10/21 02:03:33;;;;;;;8.80;7.53;;;;;;;;;;628407;23;1218;-61
2022/10/21 02:04:46;;;;;;;8.70;7.38;;;;;;;;;;628002;23;1366;-61
2022/10/21 02:05:57;;;;;;;10.07;7.72;;;;;;;;;;627621;23;1271;-62
2022/10/21 02:07:05;;;;;;;8.10;7.30;;;;;;;;;;628190;23;916;-61
2022/10/21 02:08:13;;;;;;;8.52;7.20;;;;;;;;;;624986;23;960;-61
2022/10/21 02:09:21;;;;;;;8.57;7.38;;;;;;;;;;628242;23;1372;-60
2022/10/21 02:10:32;;;;;;;8.02;7.20;;;;;;;;;;624686;23;1193;-61
2022/10/21 02:11:42;;;;;;;8.27;7.18;;;;;;;;;;628007;23;939;-60
2022/10/21 02:12:53;;;;;;;8.45;7.30;;;;;;;;;;630604;23;883;-61
2022/10/21 02:14:08;;;;;;;9.45;7.25;;;;;;;;;;627989;23;1268;-61
2022/10/21 02:15:28;;;;;;;7.85;7.15;;;;;;;;;;627532;23;1263;-61
2022/10/21 02:16:37;;;;;;;8.32;7.43;;;;;;;;;;630910;23;1005;-61
2022/10/21 02:17:50;;;;;;;7.80;7.00;;;;;;;;;;631037;23;950;-61
2022/10/21 02:19:00;;;;;;;9.60;7.55;;;;;;;;;;630785;23;1053;-61
2022/10/21 02:20:12;;;;;;;8.02;7.00;;;;;;;;;;627536;23;1467;-61
2022/10/21 02:21:22;;;;;;;10.07;7.15;;;;;;;;;;625179;23;1299;-61
2022/10/21 02:22:31;;;;;;;8.40;7.32;;;;;;;;;;628365;23;828;-61
2022/10/21 02:23:44;;;;;;;9.13;6.95;;;;;;;;;;627595;23;891;-61
2022/10/21 02:25:16;;;;;;;8.90;6.97;;;;;;;;;;625182;23;1253;-61
2022/10/21 02:26:26;;;;;;;7.82;7.07;;;;;;;;;;627223;23;1024;-60
2022/10/21 02:27:34;;;;;;;8.13;7.18;;;;;;;;;;631359;23;927;-61
2022/10/21 02:28:43;;;;;;;8.82;7.05;;;;;;;;;;627658;23;1217;-61
2022/10/21 02:29:52;;;;;;;8.10;7.20;;;;;;;;;;631084;23;892;-61
2022/10/21 02:31:09;;;;;;;8.07;6.97;;;;;;;;;;630240;23;1934;-61
2022/10/21 02:32:26;;;;;;;7.93;6.97;;;;;;;;;;624829;23;1387;-61
2022/10/21 02:33:58;;;;;;;7.45;6.65;;;;;;;;;;627860;23;1206;-61
2022/10/21 02:35:31;;;;;;;7.57;6.55;;;;;;;;;;624576;23;924;-60
2022/10/21 02:36:57;;;;;;;8.15;6.50;;;;;;;;;;630187;23;955;-61
2022/10/21 02:38:23;;;;;;;8.45;6.57;;;;;;;;;;631073;23;866;-61
2022/10/21 02:39:45;;;;;;;8.18;6.47;;;;;;;;;;628265;23;1455;-61
2022/10/21 02:40:58;;;;;;;8.95;6.30;;;;;;;;;;627702;23;1322;-61
2022/10/21 02:42:10;;;;;;;7.88;6.03;;;;;;;;;;627782;23;1047;-61
2022/10/21 02:43:27;;;;;;;6.93;5.80;;;;;;;;;;628005;23;963;-60
2022/10/21 02:44:39;;;;;;;7.25;6.00;;;;;;;;;;627578;23;878;-61
2022/10/21 02:45:47;;;;;;;10.25;6.30;;;;;;;;;;631003;23;1041;-61
2022/10/21 02:47:03;;;;;;;7.07;5.93;;;;;;;;;;630613;23;1968;-61
2022/10/21 02:48:11;;;;;;;7.40;6.05;;;;;;;;;;627932;23;1081;-61
2022/10/21 02:49:19;;;;;;;8.30;6.25;;;;;;;;;;631569;23;949;-61
2022/10/21 02:50:27;;;;;;;8.80;6.28;;;;;;;;;;633444;23;971;-60
2022/10/21 02:51:35;;;;;;;8.73;6.60;;;;;;;;;;630800;23;1255;-60
2022/10/21 02:52:43;;;;;;;8.15;6.45;;;;;;;;;;631316;23;1010;-61
2022/10/21 02:53:50;;;;;;;8.32;6.55;;;;;;;;;;627663;23;1592;-61
2022/10/21 02:54:58;;;;;;;8.55;6.75;;;;;;;;;;628075;23;883;-61
2022/10/21 02:56:07;;;;;;;7.80;7.00;;;;;;;;;;627464;23;1029;-61
2022/10/21 02:57:15;;;;;;;10.23;7.10;;;;;;;;;;628103;23;1372;-61
2022/10/21 02:58:22;;;;;;;7.80;6.55;;;;;;;;;;628021;23;1001;-60
2022/10/21 02:59:30;;;;;;;9.35;6.70;;;;;;;;;;625228;23;1384;-61
2022/10/21 03:00:38;;;;;;;8.98;6.63;;;;;;;;;;625142;23;1084;-61
2022/10/21 03:01:46;;;;;;;8.90;6.88;;;;;;;;;;630558;23;1183;-61
2022/10/21 03:02:54;;;;;;;8.43;6.65;;;;;;;;;;630010;23;909;-61
2022/10/21 03:04:01;;;;;;;10.65;7.28;;;;;;;;;;625031;23;905;-61
2022/10/21 03:05:11;;;;;;;9.18;7.22;;;;;;;;;;624292;23;1119;-61
2022/10/21 03:06:19;;;;;;;8.55;7.40;;;;;;;;;;621974;23;946;-61
2022/10/21 03:07:27;;;;;;;8.25;7.35;;;;;;;;;;621571;23;844;-61
2022/10/21 03:08:35;;;;;;;8.77;7.28;;;;;;;;;;628094;23;1437;-61
2022/10/21 03:09:42;;;;;;;8.10;7.30;;;;;;;;;;627310;23;1462;-61
2022/10/21 03:10:51;;;;;;;8.00;6.75;;;;;;;;;;625297;23;1443;-61
2022/10/21 03:11:59;;;;;;;7.32;6.43;;;;;;;;;;628192;23;1051;-61
2022/10/21 03:13:06;;;;;;;8.50;7.30;;;;;;;;;;631379;23;982;-61
2022/10/21 03:14:14;;;;;;;8.20;7.13;;;;;;;;;;628355;23;1363;-61
2022/10/21 03:15:22;;;;;;;8.07;7.10;;;;;;;;;;627797;23;936;-61
2022/10/21 03:16:30;;;;;;;9.00;7.47;;;;;;;;;;627935;23;1430;-61
2022/10/21 03:17:38;;;;;;;8.25;7.05;;;;;;;;;;624831;23;991;-61
2022/10/21 03:18:46;;;;;;;8.32;7.25;;;;;;;;;;622318;23;1091;-61
2022/10/21 03:19:53;;;;;;;9.45;7.20;;;;;;;;;;621730;23;975;-61
2022/10/21 03:21:01;;;;;;;8.15;6.80;;;;;;;;;;625022;23;971;-61
2022/10/21 03:22:09;;;;;;;8.25;7.10;;;;;;;;;;630624;23;1288;-60
2022/10/21 03:23:18;;;;;;;10.48;7.13;;;;;;;;;;628238;23;1296;-61
2022/10/21 03:24:25;;;;;;;7.63;6.82;;;;;;;;;;630842;23;1223;-61
2022/10/21 03:25:33;;;;;;;9.57;6.90;;;;;;;;;;627910;23;959;-61
2022/10/21 03:26:41;;;;;;;9.38;6.90;;;;;;;;;;627350;23;1185;-61
2022/10/21 03:27:49;;;;;;;8.20;6.88;;;;;;;;;;622153;23;1278;-61
2022/10/21 03:28:57;;;;;;;7.80;7.00;;;;;;;;;;627331;23;999;-61
2022/10/21 03:30:06;;;;;;;9.00;6.95;;;;;;;;;;624645;23;1233;-61
2022/10/21 03:31:13;;;;;;;8.68;6.85;;;;;;;;;;627493;23;1011;-61
2022/10/21 03:32:21;;;;;;;8.80;7.13;;;;;;;;;;627740;23;1440;-61
2022/10/21 03:33:29;;;;;;;9.43;7.00;;;;;;;;;;630853;23;942;-61
2022/10/21 03:34:37;;;;;;;9.35;7.55;;;;;;;;;;627294;23;1280;-61
2022/10/21 03:35:45;;;;;;;9.23;6.88;;;;;;;;;;631086;23;867;-61
2022/10/21 03:36:52;;;;;;;9.43;7.30;;;;;;;;;;627403;23;1300;-61
2022/10/21 03:38:00;;;;;;;10.23;7.68;;;;;;;;;;627874;23;1334;-61
2022/10/21 03:39:09;;;;;;;9.73;7.95;;;;;;;;;;633230;23;917;-61
2022/10/21 03:40:17;;;;;;;10.27;7.25;;;;;;;;;;631425;23;981;-61
2022/10/21 03:41:25;;;;;;;8.27;7.00;;;;;;;;;;630360;23;944;-61
2022/10/21 03:42:33;;;;;;;11.25;7.90;;;;;;;;;;631251;23;991;-61
2022/10/21 03:43:41;;;;;;;9.10;8.20;;;;;;;;;;630011;23;1014;-61
2022/10/21 03:44:49;;;;;;;9.75;8.15;;;;;;;;;;628089;23;1402;-61
2022/10/21 03:45:57;;;;;;;10.32;7.90;;;;;;;;;;627922;23;1383;-61
2022/10/21 03:47:05;;;;;;;9.77;7.70;;;;;;;;;;625052;23;2037;-61
2022/10/21 03:48:13;;;;;;;9.02;7.53;;;;;;;;;;627640;23;936;-61
2022/10/21 03:49:20;;;;;;;8.45;7.53;;;;;;;;;;627608;23;875;-61
2022/10/21 03:50:28;;;;;;;10.45;7.80;;;;;;;;;;628230;23;978;-61
2022/10/21 03:51:36;;;;;;;9.15;7.28;;;;;;;;;;627599;23;1257;-61
2022/10/21 03:52:44;;;;;;;7.93;7.13;;;;;;;;;;622139;23;1327;-61
2022/10/21 03:53:52;;;;;;;9.77;7.60;;;;;;;;;;627230;23;904;-61
2022/10/21 03:55:00;;;;;;;7.90;7.10;;;;;;;;;;627301;23;1219;-61
2022/10/21 03:56:08;;;;;;;9.05;7.50;;;;;;;;;;627980;23;998;-61
2022/10/21 03:57:15;;;;;;;8.68;7.78;;;;;;;;;;627944;23;1277;-61
2022/10/21 03:58:24;;;;;;;10.90;8.60;;;;;;;;;;624219;23;1222;-61
2022/10/21 03:59:32;;;;;;;8.65;7.85;;;;;;;;;;631161;23;1295;-61
2022/10/21 04:00:40;;;;;;;10.10;8.52;;;;;;;;;;632569;23;832;-61
2022/10/21 04:01:48;;;;;;;9.80;7.47;;;;;;;;;;628156;23;1443;-61
2022/10/21 04:02:56;;;;;;;7.93;7.05;;;;;;;;;;624757;23;1293;-61
2022/10/21 04:04:04;;;;;;;7.82;7.03;;;;;;;;;;624812;23;835;-61
2022/10/21 04:05:12;;;;;;;8.75;7.85;;;;;;;;;;624258;23;1262;-61
2022/10/21 04:06:20;;;;;;;8.80;7.55;;;;;;;;;;627954;23;1049;-61
2022/10/21 04:07:28;;;;;;;8.98;7.85;;;;;;;;;;630190;23;1021;-61
2022/10/21 04:08:35;;;;;;;8.30;7.30;;;;;;;;;;630473;23;871;-61
2022/10/21 04:09:43;;;;;;;8.48;7.63;;;;;;;;;;631025;23;864;-61
2022/10/21 04:10:51;;;;;;;9.40;7.18;;;;;;;;;;631166;23;847;-61
2022/10/21 04:11:59;;;;;;;8.00;7.20;;;;;;;;;;631353;23;890;-61
2022/10/21 04:13:07;;;;;;;8.00;7.20;;;;;;;;;;627994;23;1256;-61
2022/10/21 04:14:15;;;;;;;8.43;7.25;;;;;;;;;;624006;23;1398;-61
2022/10/21 04:15:23;;;;;;;9.40;7.30;;;;;;;;;;627752;23;1003;-61
2022/10/21 04:16:32;;;;;;;11.10;7.13;;;;;;;;;;628066;23;1009;-61
2022/10/21 04:17:40;;;;;;;10.98;7.07;;;;;;;;;;631358;23;898;-61
2022/10/21 04:18:48;;;;;;;7.93;7.05;;;;;;;;;;630855;23;886;-61
2022/10/21 04:19:56;;;;;;;8.70;7.35;;;;;;;;;;627836;23;1262;-61
2022/10/21 04:21:04;;;;;;;10.20;7.30;;;;;;;;;;625244;23;1050;-61
2022/10/21 04:22:12;;;;;;;8.52;7.20;;;;;;;;;;626370;23;1367;-61
2022/10/21 04:23:20;;;;;;;8.32;7.20;;;;;;;;;;622007;23;1344;-61
2022/10/21 04:24:28;;;;;;;8.82;7.32;;;;;;;;;;627510;23;879;-61
2022/10/21 04:25:36;;;;;;;9.68;7.70;;;;;;;;;;628319;23;1340;-61
2022/10/21 04:26:44;;;;;;;7.38;6.55;;;;;;;;;;621518;23;1945;-61
2022/10/21 04:27:52;;;;;;;9.85;7.25;;;;;;;;;;627646;23;1564;-60
2022/10/21 04:29:00;;;;;;;9.43;7.25;;;;;;;;;;630009;23;933;-61
2022/10/21 04:30:08;;;;;;;8.70;7.13;;;;;;;;;;631401;23;961;-61
2022/10/21 04:31:15;;;;;;;8.32;6.97;;;;;;;;;;630853;23;993;-61
2022/10/21 04:32:23;;;;;;;10.48;7.00;;;;;;;;;;630965;23;896;-61
2022/10/21 04:33:31;;;;;;;10.10;7.00;;;;;;;;;;630329;23;959;-61
2022/10/21 04:34:39;;;;;;;8.77;7.10;;;;;;;;;;631206;23;960;-61
2022/10/21 04:35:47;;;;;;;10.63;7.20;;;;;;;;;;627786;23;1263;-61
2022/10/21 04:36:55;;;;;;;8.55;7.05;;;;;;;;;;624852;23;879;-61
2022/10/21 04:38:03;;;;;;;8.73;7.00;;;;;;;;;;631101;23;812;-61
2022/10/21 04:39:11;;;;;;;8.57;7.20;;;;;;;;;;631164;23;999;-61
2022/10/21 04:40:19;;;;;;;8.88;6.90;;;;;;;;;;628653;23;1591;-61
2022/10/21 04:41:27;;;;;;;7.30;6.60;;;;;;;;;;629977;23;976;-61
2022/10/21 04:42:35;;;;;;;7.80;6.72;;;;;;;;;;627946;23;1537;-61
2022/10/21 04:43:43;;;;;;;9.25;7.35;;;;;;;;;;624427;23;1220;-61
2022/10/21 04:44:52;;;;;;;9.30;7.15;;;;;;;;;;630900;23;954;-61
2022/10/21 04:46:00;;;;;;;8.10;7.00;;;;;;;;;;627526;23;1268;-61
2022/10/21 04:47:08;;;;;;;8.43;6.95;;;;;;;;;;624182;23;1315;-61
2022/10/21 04:48:16;;;;;;;11.15;7.07;;;;;;;;;;630413;23;921;-61
2022/10/21 04:49:24;;;;;;;8.73;6.57;;;;;;;;;;631325;23;1157;-61
2022/10/21 04:50:33;;;;;;;9.57;6.60;;;;;;;;;;631295;23;897;-61
2022/10/21 04:51:42;;;;;;;8.25;6.60;;;;;;;;;;627102;23;1335;-61
2022/10/21 04:52:50;;;;;;;9.65;6.78;;;;;;;;;;630732;23;816;-61
2022/10/21 04:53:57;;;;;;;8.07;6.30;;;;;;;;;;627536;23;945;-61
2022/10/21 04:55:05;;;;;;;7.93;6.75;;;;;;;;;;624379;23;1256;-61
2022/10/21 04:56:13;;;;;;;7.05;6.00;;;;;;;;;;627848;23;936;-62
2022/10/21 04:57:21;;;;;;;6.95;6.15;;;;;;;;;;627702;23;2368;-62
2022/10/21 04:58:29;;;;;;;7.25;6.35;;;;;;;;;;625309;23;1426;-62
2022/10/21 04:59:37;;;;;;;9.00;6.30;;;;;;;;;;627767;23;1011;-62
2022/10/21 05:00:45;;;;;;;8.95;6.50;;;;;;;;;;627264;23;1328;-62
2022/10/21 05:01:53;;;;;;;8.35;6.50;;;;;;;;;;627823;23;1232;-62
2022/10/21 05:03:00;;;;;;;7.88;6.03;;;;;;;;;;631000;23;1150;-62
2022/10/21 05:04:08;;;;;;;7.45;6.10;;;;;;;;;;628220;23;1264;-62
2022/10/21 05:05:16;;;;;;;7.15;6.32;;;;;;;;;;630426;23;1213;-61
2022/10/21 05:06:24;;;;;;;7.05;6.32;;;;;;;;;;630861;23;1010;-62
2022/10/21 05:07:32;;;;;;;6.90;6.20;;;;;;;;;;627699;23;1213;-62
2022/10/21 05:08:40;;;;;;;9.02;6.22;;;;;;;;;;625437;23;2378;-62
2022/10/21 05:09:47;;;;;;;9.27;6.82;;;;;;;;;;625396;23;896;-62
2022/10/21 05:10:59;;;;;;;7.43;6.22;;;;;;;;;;628023;23;904;-62
2022/10/21 05:12:07;;;;;;;6.80;6.10;;;;;;;;;;630579;23;1374;-62
2022/10/21 05:13:15;;;;;;;7.88;6.53;;;;;;;;;;624804;23;1372;-62
2022/10/21 05:14:23;;;;;;;8.00;6.53;;;;;;;;;;624281;23;1209;-62
2022/10/21 05:15:31;;;;;;;8.63;6.68;;;;;;;;;;627956;23;1067;-62
2022/10/21 05:16:39;;;;;;;8.65;7.00;;;;;;;;;;627316;23;3094;-62
2022/10/21 05:17:47;;;;;;;10.48;6.97;;;;;;;;;;628064;23;1641;-62
2022/10/21 05:18:55;;;;;;;9.23;6.57;;;;;;;;;;627633;23;827;-62
2022/10/21 05:20:03;;;;;;;10.98;7.05;;;;;;;;;;628264;23;937;-62
2022/10/21 05:21:12;;;;;;;8.85;7.13;;;;;;;;;;631339;23;871;-62
2022/10/21 05:22:19;;;;;;;10.32;7.45;;;;;;;;;;630578;23;1344;-62
2022/10/21 05:23:27;;;;;;;9.35;6.85;;;;;;;;;;631352;23;945;-62
2022/10/21 05:24:35;;;;;;;9.48;7.28;;;;;;;;;;634183;23;1447;-62
2022/10/21 05:25:43;;;;;;;8.85;6.82;;;;;;;;;;630931;23;902;-62
2022/10/21 05:26:51;;;;;;;9.10;7.25;;;;;;;;;;628308;23;1391;-62
2022/10/21 05:27:59;;;;;;;9.60;7.50;;;;;;;;;;631025;23;1044;-62
2022/10/21 05:29:07;;;;;;;9.30;7.38;;;;;;;;;;630454;23;1759;-62
2022/10/21 05:30:15;;;;;;;8.95;7.13;;;;;;;;;;626836;23;1174;-62
2022/10/21 05:31:23;;;;;;;7.85;7.05;;;;;;;;;;627613;23;1984;-62
2022/10/21 05:32:31;;;;;;;9.85;7.32;;;;;;;;;;628109;23;1271;-62
2022/10/21 05:33:38;;;;;;;8.90;7.45;;;;;;;;;;627326;23;1393;-62
2022/10/21 05:34:46;;;;;;;8.05;6.93;;;;;;;;;;622121;23;1319;-62
2022/10/21 05:35:59;;;;;;;10.35;7.40;;;;;;;;;;627094;23;1142;-62
2022/10/21 05:37:07;;;;;;;8.30;7.20;;;;;;;;;;634008;23;1426;-62
2022/10/21 05:38:15;;;;;;;9.73;7.77;;;;;;;;;;631200;23;855;-62
2022/10/21 05:39:23;;;;;;;11.10;7.63;;;;;;;;;;631554;23;1004;-62
2022/10/21 05:40:31;;;;;;;8.40;7.38;;;;;;;;;;630617;23;1335;-62
2022/10/21 05:41:40;;;;;;;9.35;7.97;;;;;;;;;;631060;23;943;-62
2022/10/21 05:42:48;;;;;;;9.40;7.97;;;;;;;;;;631307;23;1149;-62
2022/10/21 05:43:56;;;;;;;9.98;8.93;;;;;;;;;;630846;23;962;-62
2022/10/21 05:45:04;;;;;;;12.00;10.68;;;;;;;;;;627799;23;1158;-62
2022/10/21 05:46:12;;;;;;;11.55;8.75;;;;;;;;;;630700;23;998;-62
2022/10/21 05:47:20;;;;;;;10.63;9.18;;;;;;;;;;630791;23;978;-62
2022/10/21 05:48:28;;;;;;;8.63;7.55;;;;;;;;;;627965;23;1421;-62
2022/10/21 05:49:36;;;;;;;9.73;7.43;;;;;;;;;;627379;23;1598;-62
2022/10/21 05:50:44;;;;;;;9.48;7.63;;;;;;;;;;624986;23;863;-62
2022/10/21 05:51:52;;;;;;;9.65;7.35;;;;;;;;;;630577;23;839;-62
2022/10/21 05:53:00;;;;;;;11.82;8.07;;;;;;;;;;630673;23;1451;-62
2022/10/21 05:54:08;;;;;;;9.80;7.40;;;;;;;;;;624924;23;1232;-62
2022/10/21 05:55:15;;;;;;;11.35;8.35;;;;;;;;;;627792;23;1304;-62
2022/10/21 05:56:23;;;;;;;12.10;9.18;;;;;;;;;;628609;23;964;-62
2022/10/21 05:57:33;;;;;;;10.15;8.38;;;;;;;;;;631412;23;903;-62
2022/10/21 05:58:41;;;;;;;9.88;8.65;;;;;;;;;;631992;23;829;-62
2022/10/21 05:59:48;;;;;;;8.63;7.38;;;;;;;;;;630923;23;962;-62
2022/10/21 06:00:57;;;;;;;10.52;8.32;;;;;;;;;;627610;23;1760;-62
2022/10/21 06:02:05;;;;;;;11.65;7.90;;;;;;;;;;627461;23;1256;-62
2022/10/21 06:03:13;;;;;;;7.88;6.88;;;;;;;;;;628428;23;1320;-62
2022/10/21 06:04:23;;;;;;;10.18;7.88;;;;;;;;;;628036;23;1630;-62
2022/10/21 06:05:30;;;;;;;10.02;8.50;;;;;;;;;;628180;23;1014;-62
2022/10/21 06:06:38;;;;;;;12.95;8.10;;;;;;;;;;624410;23;1251;-63
2022/10/21 06:07:46;;;;;;;11.93;9.00;;;;;;;;;;624904;23;982;-62
2022/10/21 06:08:54;;;;;;;12.13;8.20;;;;;;;;;;630465;23;916;-62
2022/10/21 06:10:04;;;;;;;11.73;7.40;;;;;;;;;;631422;23;1330;-62
2022/10/21 06:11:13;;;;;;;9.30;7.40;;;;;;;;;;630681;23;1096;-62
2022/10/21 06:12:21;;;;;;;9.00;6.47;;;;;;;;;;631492;23;971;-62
2022/10/21 06:13:29;;;;;;;11.45;6.88;;;;;;;;;;627433;23;808;-62
2022/10/21 06:14:37;;;;;;;9.25;6.82;;;;;;;;;;627722;23;1289;-62
2022/10/21 06:15:45;;;;;;;8.82;6.93;;;;;;;;;;627184;23;950;-62
2022/10/21 06:16:53;;;;;;;10.00;6.70;;;;;;;;;;628582;23;927;-62
2022/10/21 06:18:01;;;;;;;11.10;6.80;;;;;;;;;;630802;23;1387;-62
2022/10/21 06:19:09;;;;;;;9.18;6.70;;;;;;;;;;625282;23;1351;-62
2022/10/21 06:20:17;;;;;;;11.27;6.88;;;;;;;;;;630897;23;1378;-61
2022/10/21 06:21:25;;;;;;;11.20;7.13;;;;;;;;;;630886;23;866;-62
2022/10/21 06:22:33;;;;;;;7.47;6.35;;;;;;;;;;634232;23;1337;-62
2022/10/21 06:23:41;;;;;;;13.82;7.68;;;;;;;;;;634302;23;1171;-62
2022/10/21 06:24:49;;;;;;;9.45;7.10;;;;;;;;;;628002;23;1256;-62
2022/10/21 06:25:58;;;;;;;13.23;8.25;;;;;;;;;;627952;23;1264;-62
2022/10/21 06:27:07;;;;;;;9.95;8.02;;;;;;;;;;628076;23;1005;-62
2022/10/21 06:28:15;;;;;;;10.68;7.60;;;;;;;;;;626740;23;855;-62
2022/10/21 06:29:24;;;;;;;11.13;7.43;;;;;;;;;;630063;23;1221;-62
2022/10/21 06:30:32;;;;;;;9.05;6.90;;;;;;;;;;623808;23;1590;-62
2022/10/21 06:31:40;;;;;;;9.90;6.72;;;;;;;;;;624160;23;2118;-62
2022/10/21 06:32:48;;;;;;;9.32;6.85;;;;;;;;;;627918;23;1129;-62
2022/10/21 06:33:56;;;;;;;8.30;6.80;;;;;;;;;;630295;23;1133;-62
2022/10/21 06:35:04;;;;;;;10.13;7.13;;;;;;;;;;627216;23;1204;-62
2022/10/21 06:36:12;;;;;;;9.80;6.22;;;;;;;;;;630960;23;919;-62
2022/10/21 06:37:20;;;;;;;9.52;6.22;;;;;;;;;;628960;23;1464;-62
2022/10/21 06:38:28;;;;;;;8.05;5.82;;;;;;;;;;627823;23;1076;-62
2022/10/21 06:39:35;;;;;;;8.18;6.10;;;;;;;;;;630234;23;1024;-62
2022/10/21 06:40:44;;;;;;;9.18;5.50;;;;;;;;;;624772;23;1054;-60
2022/10/21 06:41:53;;;;;;;9.55;5.70;;;;;;;;;;627324;23;1295;-60
2022/10/21 06:43:00;;;;;;;10.32;6.00;;;;;;;;;;630185;23;1268;-61
2022/10/21 06:44:08;;;;;;;8.73;5.80;;;;;;;;;;627347;23;1376;-61
2022/10/21 06:45:16;;;;;;;10.48;6.15;;;;;;;;;;624484;23;1270;-62
2022/10/21 06:46:24;;;;;;;8.02;6.13;;;;;;;;;;621466;23;1307;-60
2022/10/21 06:47:32;;;;;;;8.70;5.70;;;;;;;;;;626820;23;1380;-60
2022/10/21 06:48:40;;;;;;;8.70;5.90;;;;;;;;;;630110;23;1027;-60
2022/10/21 06:49:48;;;;;;;9.15;6.15;;;;;;;;;;629651;23;1301;-61
2022/10/21 06:50:57;;;;;;;9.32;6.28;;;;;;;;;;627988;23;1375;-60
2022/10/21 06:52:06;;;;;;;8.70;6.40;;;;;;;;;;626209;23;1436;-60
2022/10/21 06:53:14;;;;;;;9.13;6.13;;;;;;;;;;627048;23;1197;-60
2022/10/21 06:54:23;;;;;;;9.80;6.55;;;;;;;;;;630229;23;978;-60
2022/10/21 06:55:31;;;;;;;12.23;6.45;;;;;;;;;;630761;23;855;-60
2022/10/21 06:56:38;;;;;;;9.93;6.47;;;;;;;;;;630383;23;1260;-61
2022/10/21 06:57:46;;;;;;;10.98;6.10;;;;;;;;;;627695;23;1413;-61
2022/10/21 06:58:55;;;;;;;8.77;5.50;;;;;;;;;;625992;23;937;-60
2022/10/21 07:00:04;;;;;;;7.45;5.60;;;;;;;;;;626459;23;1399;-61
2022/10/21 07:01:14;;;;;;;8.77;5.70;;;;;;;;;;625992;23;1225;-61
2022/10/21 07:02:23;;;;;;;11.13;5.35;;;;;;;;;;630387;23;974;-61
2022/10/21 07:03:30;;;;;;;8.02;5.10;;;;;;;;;;632980;23;1500;-60
2022/10/21 07:04:43;;;;;;;9.45;4.50;;;;;;;;;;629881;23;1217;-61
2022/10/21 07:05:58;;;;;;;6.38;4.63;;;;;;;;;;627072;23;1067;-61
2022/10/21 07:07:06;;;;;;;6.22;4.07;;;;;;;;;;623791;23;1598;-60
2022/10/21 07:08:14;;;;;;;6.60;4.32;;;;;;;;;;621461;23;1221;-60
2022/10/21 07:09:23;;;;;;;8.68;4.65;;;;;;;;;;626999;23;1025;-61
2022/10/21 07:10:31;;;;;;;7.95;4.53;;;;;;;;;;626637;23;1261;-61
2022/10/21 07:11:38;;;;;;;9.95;4.50;;;;;;;;;;630489;23;952;-60
2022/10/21 07:12:46;;;;;;;6.30;4.43;;;;;;;;;;626874;23;1430;-60
2022/10/21 07:13:54;;;;;;;6.97;5.00;;;;;;;;;;629738;23;1327;-60
2022/10/21 07:15:02;;;;;;;8.02;5.18;;;;;;;;;;628378;23;1438;-61